Time;durP1;ratioP1;P1;durP2;ratioP2;P2;SDS_P1;SDS_P2;PMS_P1;PMS_P2;Temp;Humidity;BMP_temperature;BMP_pressure;BME280_temperature;BME280_humidity;BME280_pressure;Samples;Min_cycle;Max_cycle;Signal;HPM_P1;HPM_P2
2024/04/23 00:01:26;;;;;;;7.77;5.70;;;;;;;8.19;47.82;101995.91;5285422;27;20492;-75
2024/04/23 00:03:51;;;;;;;10.17;6.50;;;;;;;8.41;47.37;101993.31;5311038;27;20268;-75
2024/04/23 00:06:17;;;;;;;8.53;6.07;;;;;;;8.30;47.42;101984.22;5302943;27;20597;-76
2024/04/23 00:08:42;;;;;;;8.10;6.40;;;;;;;8.25;47.01;101977.97;5274993;27;20637;-76
2024/04/23 00:11:08;;;;;;;6.97;5.60;;;;;;;8.06;47.01;101981.53;5275226;27;20226;-74
2024/04/23 00:13:33;;;;;;;7.07;5.93;;;;;;;8.47;46.48;101979.72;5276144;27;20775;-75
2024/04/23 00:15:58;;;;;;;9.60;6.70;;;;;;;7.75;47.70;101977.69;5276665;27;20846;-74
2024/04/23 00:18:27;;;;;;;8.30;6.03;;;;;;;8.05;46.95;101977.16;5277169;27;20227;-72
2024/04/23 00:20:56;;;;;;;9.20;6.30;;;;;;;8.12;47.85;101973.09;5278176;27;20265;-75
2024/04/23 00:23:25;;;;;;;7.00;5.90;;;;;;;8.04;48.13;101978.88;5276806;27;20474;-75
2024/04/23 00:25:50;;;;;;;9.07;6.70;;;;;;;8.04;48.64;101976.28;5276037;27;21041;-74
2024/04/23 00:28:15;;;;;;;9.60;6.60;;;;;;;7.44;49.79;101976.41;5275644;27;20442;-75
2024/04/23 00:30:41;;;;;;;7.97;6.27;;;;;;;8.01;48.51;101973.59;5276897;27;20321;-75
2024/04/23 00:33:06;;;;;;;7.80;6.57;;;;;;;7.32;51.05;101976.81;5276095;27;20231;-73
2024/04/23 00:35:32;;;;;;;11.13;7.27;;;;;;;7.96;49.69;101969.91;5274799;27;20319;-75
2024/04/23 00:37:57;;;;;;;10.50;6.97;;;;;;;8.02;49.04;101964.94;5276094;27;20832;-74
2024/04/23 00:40:23;;;;;;;9.30;6.70;;;;;;;7.72;49.75;101957.69;5276540;27;20502;-75
2024/04/23 00:42:48;;;;;;;9.77;6.97;;;;;;;7.99;49.97;101958.75;5276632;27;20345;-73
2024/04/23 00:45:15;;;;;;;11.10;7.40;;;;;;;7.18;51.52;101952.84;5276673;27;20219;-75
2024/04/23 00:47:41;;;;;;;9.20;6.40;;;;;;;7.84;50.19;101951.25;5276050;27;20413;-75
2024/04/23 00:50:06;;;;;;;10.60;7.57;;;;;;;7.43;50.36;101946.13;5274232;27;20456;-75
2024/04/23 00:52:32;;;;;;;8.50;6.20;;;;;;;7.50;51.14;101942.97;5276147;27;20230;-75
2024/04/23 00:54:57;;;;;;;10.80;7.10;;;;;;;7.32;51.29;101953.47;5275681;27;20281;-75
2024/04/23 00:57:23;;;;;;;9.93;7.23;;;;;;;7.38;50.99;101943.31;5275970;27;20821;-75
2024/04/23 00:59:48;;;;;;;9.50;7.43;;;;;;;7.35;51.77;101943.19;5275960;27;20560;-74
2024/04/23 01:02:14;;;;;;;10.73;6.90;;;;;;;7.74;50.38;101930.09;5295947;27;20841;-74
2024/04/23 01:04:39;;;;;;;9.60;6.80;;;;;;;7.98;50.24;101929.28;5309434;26;20264;-72
2024/04/23 01:07:05;;;;;;;11.90;7.97;;;;;;;7.68;50.87;101935.03;5309952;26;20226;-75
2024/04/23 01:09:30;;;;;;;8.50;6.23;;;;;;;7.21;52.17;101939.13;5307935;27;20672;-75
2024/04/23 01:11:55;;;;;;;11.30;7.00;;;;;;;7.72;52.02;101931.72;5309776;26;20226;-76
2024/04/23 01:14:21;;;;;;;9.23;6.63;;;;;;;7.48;51.82;101930.72;5309335;26;20238;-74
2024/04/23 01:16:48;;;;;;;10.87;6.60;;;;;;;7.51;52.40;101930.84;5309854;26;20264;-74
2024/04/23 01:19:24;;;;;;;8.17;6.53;;;;;;;7.53;52.27;101934.41;5308283;27;20226;-73
2024/04/23 01:22:00;;;;;;;11.73;7.07;;;;;;;7.54;52.75;101931.88;5309777;26;20507;-75
2024/04/23 01:24:32;;;;;;;8.80;7.10;;;;;;;7.68;52.57;101928.97;5309299;26;20456;-75
2024/04/23 01:26:58;;;;;;;9.13;6.60;;;;;;;7.98;52.10;101928.41;5308790;26;20933;-74
2024/04/23 01:29:25;;;;;;;8.67;6.60;;;;;;;7.96;52.30;101920.56;5309451;26;20456;-74
2024/04/23 01:31:51;;;;;;;9.00;7.47;;;;;;;7.57;53.45;101918.16;5309611;26;20516;-74
2024/04/23 01:34:16;;;;;;;9.20;6.70;;;;;;;7.92;52.13;101905.69;5309682;26;20560;-75
2024/04/23 01:36:42;;;;;;;8.53;6.53;;;;;;;7.75;52.86;101905.91;5309592;26;20453;-76
2024/04/23 01:39:07;;;;;;;8.97;6.43;;;;;;;7.17;54.07;101914.78;5310658;26;20226;-74
2024/04/23 01:41:33;;;;;;;9.87;7.07;;;;;;;7.62;53.56;101895.88;5312862;27;20269;-75
2024/04/23 01:44:00;;;;;;;7.13;6.43;;;;;;;7.93;52.33;101897.09;5311097;27;20226;-75
2024/04/23 01:46:26;;;;;;;8.50;6.17;;;;;;;7.92;52.31;101892.72;5312884;27;20501;-73
2024/04/23 01:48:51;;;;;;;7.97;6.27;;;;;;;7.94;52.53;101896.25;5312316;26;20445;-74
2024/04/23 01:51:17;;;;;;;9.30;7.00;;;;;;;8.02;52.08;101900.03;5310793;27;20953;-75
2024/04/23 01:53:42;;;;;;;7.03;5.67;;;;;;;8.24;51.80;101906.94;5312667;26;20396;-73
2024/04/23 01:56:08;;;;;;;9.07;6.37;;;;;;;8.15;51.85;101900.53;5310825;27;20672;-75
2024/04/23 01:58:33;;;;;;;9.90;6.37;;;;;;;8.04;52.32;101903.56;5312291;26;20270;-73
2024/04/23 02:01:00;;;;;;;9.63;6.50;;;;;;;7.80;52.75;101894.84;5308348;27;20249;-75
2024/04/23 02:03:26;;;;;;;14.00;7.40;;;;;;;7.72;53.62;101905.78;5278475;27;20235;-76
2024/04/23 02:05:54;;;;;;;8.83;6.60;;;;;;;7.34;54.36;101899.03;5279013;27;20450;-75
2024/04/23 02:08:20;;;;;;;9.07;6.50;;;;;;;8.05;52.41;101897.56;5280562;27;20791;-74
2024/04/23 02:10:46;;;;;;;8.00;6.20;;;;;;;7.39;54.06;101900.13;5280026;27;20503;-73
2024/04/23 02:13:11;;;;;;;8.60;6.80;;;;;;;7.93;52.64;101895.38;5278526;27;20231;-75
2024/04/23 02:15:36;;;;;;;9.00;6.90;;;;;;;7.47;53.66;101900.41;5278425;27;20219;-74
2024/04/23 02:18:02;;;;;;;11.00;7.23;;;;;;;7.16;54.39;101904.34;5276576;27;20257;-73
2024/04/23 02:20:27;;;;;;;9.10;6.70;;;;;;;7.37;54.17;101900.06;5278270;27;20459;-75
2024/04/23 02:22:52;;;;;;;7.90;6.90;;;;;;;7.70;53.03;101891.88;5276380;27;20247;-74
2024/04/23 02:25:18;;;;;;;9.00;7.23;;;;;;;7.20;54.32;101893.28;5278067;27;20227;-74
2024/04/23 02:27:43;;;;;;;10.73;8.13;;;;;;;7.27;53.94;101890.13;5277820;27;20254;-74
2024/04/23 02:30:08;;;;;;;9.53;7.70;;;;;;;7.59;52.69;101891.44;5276140;27;20261;-75
2024/04/23 02:32:34;;;;;;;8.10;7.27;;;;;;;7.55;52.35;101886.03;5277979;27;20282;-75
2024/04/23 02:34:59;;;;;;;13.87;9.00;;;;;;;6.57;55.12;101899.22;5278098;27;20332;-75
2024/04/23 02:37:24;;;;;;;11.00;7.40;;;;;;;6.52;55.83;101895.50;5278278;27;20407;-75
2024/04/23 02:39:50;;;;;;;9.30;7.10;;;;;;;7.34;52.93;101897.31;5277555;27;20265;-75
2024/04/23 02:42:15;;;;;;;11.30;8.10;;;;;;;7.29;54.19;101888.44;5277962;27;20235;-75
2024/04/23 02:44:40;;;;;;;11.03;6.83;;;;;;;7.55;52.24;101889.53;5277602;27;20223;-75
2024/04/23 02:47:05;;;;;;;11.00;7.70;;;;;;;7.10;52.90;101899.75;5277793;27;20804;-75
2024/04/23 02:49:31;;;;;;;8.17;7.37;;;;;;;7.30;52.89;101889.34;5277433;27;20211;-74
2024/04/23 02:51:56;;;;;;;8.23;7.07;;;;;;;7.62;51.76;101882.00;5276639;27;20235;-73
2024/04/23 02:54:22;;;;;;;9.00;7.13;;;;;;;7.21;52.87;101882.97;5277873;27;20605;-75
2024/04/23 02:56:48;;;;;;;7.93;6.67;;;;;;;7.28;53.23;101883.22;5278369;27;20273;-73
2024/04/23 02:59:17;;;;;;;8.13;7.00;;;;;;;7.18;52.85;101882.81;5277746;27;20447;-74
2024/04/23 03:01:43;;;;;;;7.97;6.87;;;;;;;7.29;52.88;101883.25;5290147;27;20457;-75
2024/04/23 03:04:08;;;;;;;11.23;7.10;;;;;;;6.82;53.55;101879.53;5311913;26;20580;-74
2024/04/23 03:06:34;;;;;;;9.70;6.77;;;;;;;6.98;53.33;101871.63;5311709;26;20718;-75
2024/04/23 03:08:59;;;;;;;8.50;7.07;;;;;;;6.93;53.77;101872.22;5310867;27;20218;-76
2024/04/23 03:11:24;;;;;;;8.10;7.17;;;;;;;6.99;53.40;101863.00;5311746;27;20218;-75
2024/04/23 03:13:49;;;;;;;7.70;6.80;;;;;;;7.23;52.43;101868.34;5312244;27;20230;-75
2024/04/23 03:16:15;;;;;;;8.33;6.93;;;;;;;7.61;51.94;101867.25;5311659;27;20222;-75
2024/04/23 03:18:40;;;;;;;8.50;7.10;;;;;;;6.34;55.12;101865.38;5311604;27;20222;-73
2024/04/23 03:21:05;;;;;;;9.90;6.47;;;;;;;6.36;54.49;101866.34;5312168;27;20226;-75
2024/04/23 03:23:30;;;;;;;12.23;6.90;;;;;;;7.01;54.05;101848.41;5312026;27;20277;-73
2024/04/23 03:25:56;;;;;;;7.80;6.00;;;;;;;7.15;53.34;101856.75;5313021;27;20234;-76
2024/04/23 03:28:21;;;;;;;9.27;7.17;;;;;;;7.28;52.89;101853.00;5312019;27;20222;-75
2024/04/23 03:30:46;;;;;;;10.40;7.43;;;;;;;6.30;54.58;101852.22;5312302;27;20578;-74
2024/04/23 03:33:11;;;;;;;7.00;6.30;;;;;;;6.85;54.08;101851.19;5312282;26;20250;-74
2024/04/23 03:35:37;;;;;;;9.07;6.37;;;;;;;6.06;55.71;101846.00;5312931;27;20222;-74
2024/04/23 03:38:02;;;;;;;8.97;7.17;;;;;;;6.95;53.34;101844.69;5312363;27;20316;-75
2024/04/23 03:40:27;;;;;;;7.83;7.03;;;;;;;7.05;53.64;101839.94;5310183;27;20222;-76
2024/04/23 03:42:53;;;;;;;9.07;6.63;;;;;;;6.72;54.20;101848.06;5312304;27;20243;-74
2024/04/23 03:45:18;;;;;;;10.80;7.13;;;;;;;7.18;53.26;101840.44;5312021;27;20226;-75
2024/04/23 03:47:43;;;;;;;11.27;6.97;;;;;;;6.80;53.87;101842.31;5311923;27;20214;-75
2024/04/23 03:50:08;;;;;;;7.93;6.70;;;;;;;6.82;54.25;101835.47;5309842;27;20229;-76
2024/04/23 03:52:34;;;;;;;11.37;7.00;;;;;;;6.03;55.92;101843.25;5311583;26;20242;-74
2024/04/23 03:54:59;;;;;;;12.07;7.23;;;;;;;7.03;54.10;101832.91;5311117;27;20272;-75
2024/04/23 03:57:24;;;;;;;8.30;7.20;;;;;;;6.39;54.84;101827.63;5309634;27;20256;-74
2024/04/23 03:59:50;;;;;;;8.30;6.83;;;;;;;6.57;54.75;101826.66;5311217;26;20982;-74
2024/04/23 04:07:43;;;;;;;8.97;7.03;;;;;;;6.54;55.84;101834.31;5277455;27;20501;-74
2024/04/23 04:10:08;;;;;;;10.83;7.90;;;;;;;7.08;54.80;101821.91;5276799;27;20439;-74
2024/04/23 04:12:34;;;;;;;14.17;9.30;;;;;;;6.98;54.20;101818.88;5277125;27;20274;-75
2024/04/23 04:14:59;;;;;;;9.80;7.23;;;;;;;6.97;54.46;101832.66;5277098;27;20265;-74
2024/04/23 04:17:24;;;;;;;8.60;7.30;;;;;;;7.20;54.42;101836.22;5277027;27;20808;-74
2024/04/23 04:19:49;;;;;;;9.70;7.07;;;;;;;7.00;54.10;101841.44;5277029;27;20219;-75
2024/04/23 04:22:15;;;;;;;7.67;6.87;;;;;;;6.98;54.72;101840.53;5276999;27;20239;-75
2024/04/23 04:24:40;;;;;;;9.60;7.10;;;;;;;6.94;54.54;101836.03;5276683;27;20231;-73
2024/04/23 04:27:05;;;;;;;9.60;7.33;;;;;;;6.88;54.77;101838.34;5277043;27;20238;-74
2024/04/23 04:29:31;;;;;;;10.03;7.70;;;;;;;6.80;54.94;101838.00;5276573;27;20721;-75
2024/04/23 04:31:56;;;;;;;11.60;7.33;;;;;;;7.19;54.18;101837.03;5276860;27;20239;-75
2024/04/23 04:34:21;;;;;;;9.77;7.87;;;;;;;7.16;54.93;101829.16;5275098;27;20656;-75
2024/04/23 04:36:46;;;;;;;9.53;7.50;;;;;;;7.28;55.60;101831.34;5277057;27;20321;-75
2024/04/23 04:39:12;;;;;;;9.97;7.90;;;;;;;7.53;54.14;101826.31;5276389;27;20643;-76
2024/04/23 04:41:37;;;;;;;8.10;7.30;;;;;;;7.32;54.98;101825.44;5274881;27;20242;-75
2024/04/23 04:44:03;;;;;;;8.67;7.30;;;;;;;7.70;54.37;101826.09;5276481;27;20215;-74
2024/04/23 04:46:29;;;;;;;8.33;7.27;;;;;;;7.67;54.29;101829.47;5274991;27;20231;-75
2024/04/23 04:48:54;;;;;;;9.87;7.60;;;;;;;7.40;54.93;101827.53;5276261;27;20235;-74
2024/04/23 04:51:19;;;;;;;8.80;7.80;;;;;;;7.30;53.93;101819.31;5276431;27;20556;-74
2024/04/23 04:53:45;;;;;;;10.10;7.37;;;;;;;7.18;55.15;101827.47;5276615;27;20250;-75
2024/04/23 04:56:10;;;;;;;9.13;7.73;;;;;;;7.23;54.38;101823.38;5276206;27;20223;-75
2024/04/23 04:58:36;;;;;;;8.67;7.00;;;;;;;7.64;54.11;101825.84;5276088;27;20642;-75
2024/04/23 05:01:02;;;;;;;8.33;7.40;;;;;;;7.75;54.01;101822.84;5279250;27;20694;-75
2024/04/23 05:03:27;;;;;;;11.53;7.80;;;;;;;7.57;54.44;101816.94;5310242;26;20272;-75
2024/04/23 05:05:52;;;;;;;9.30;6.83;;;;;;;7.57;54.82;101822.13;5309518;27;21030;-75
2024/04/23 05:08:18;;;;;;;9.17;7.10;;;;;;;7.82;53.59;101815.28;5308168;27;20226;-75
2024/04/23 05:10:43;;;;;;;9.60;7.60;;;;;;;7.64;52.94;101815.47;5310478;26;20331;-75
2024/04/23 05:13:09;;;;;;;10.07;7.90;;;;;;;7.85;53.37;101812.84;5310292;26;20338;-74
2024/04/23 05:15:34;;;;;;;11.07;8.80;;;;;;;8.15;53.31;101805.28;5310874;27;20286;-76
2024/04/23 05:17:59;;;;;;;8.80;7.57;;;;;;;8.18;53.39;101809.72;5313319;26;20326;-76
2024/04/23 05:20:25;;;;;;;9.47;7.23;;;;;;;8.24;52.54;101802.13;5313059;27;20265;-74
2024/04/23 05:22:50;;;;;;;10.00;7.80;;;;;;;8.21;52.44;101802.94;5311968;27;20339;-75
2024/04/23 05:25:15;;;;;;;10.30;8.63;;;;;;;7.83;53.63;101814.47;5312918;26;20261;-75
2024/04/23 05:27:41;;;;;;;12.10;8.20;;;;;;;7.71;53.78;101814.88;5312957;27;20351;-75
2024/04/23 05:30:06;;;;;;;10.10;8.00;;;;;;;8.02;53.48;101814.31;5312848;27;20256;-75
2024/04/23 05:32:47;;;;;;;16.30;10.30;;;;;;;8.29;53.02;101808.38;5310801;22;20285;-76
2024/04/23 05:35:12;;;;;;;9.93;8.07;;;;;;;8.08;53.76;101817.16;5281604;27;20268;-78
2024/04/23 05:37:38;;;;;;;21.43;8.20;;;;;;;8.08;52.67;101816.28;5250867;27;20462;-77
2024/04/23 05:40:04;;;;;;;11.30;8.30;;;;;;;8.52;52.19;101811.81;5251244;27;20262;-77
2024/04/23 05:42:29;;;;;;;12.93;8.23;;;;;;;7.88;53.61;101812.94;5280584;27;20333;-77
2024/04/23 05:44:55;;;;;;;10.40;7.93;;;;;;;8.14;52.73;101819.09;5280720;27;20227;-77
2024/04/23 05:47:20;;;;;;;8.70;7.40;;;;;;;8.29;52.95;101815.28;5281369;27;20223;-78
2024/04/23 05:50:23;;;;;;;9.40;8.07;;;;;;;8.46;51.71;101808.13;5250648;27;20226;-78
2024/04/23 05:53:26;;;;;;;10.97;8.50;;;;;;;8.62;51.96;101805.25;5284570;27;20257;-77
2024/04/23 05:55:51;;;;;;;11.20;8.20;;;;;;;8.72;51.67;101807.31;5285072;27;20510;-76
2024/04/23 05:58:17;;;;;;;9.63;7.87;;;;;;;8.32;51.94;101811.09;5281908;27;20494;-78
2024/04/23 06:00:42;;;;;;;10.97;8.13;;;;;;;8.69;52.00;101802.03;5284736;27;20617;-77
2024/04/23 06:03:07;;;;;;;10.77;8.67;;;;;;;9.00;51.91;101804.78;5279958;27;20235;-78
2024/04/23 06:05:33;;;;;;;9.63;8.20;;;;;;;8.74;51.34;101800.47;5280055;27;20329;-78
2024/04/23 06:07:58;;;;;;;11.40;8.33;;;;;;;8.69;51.61;101807.22;5279637;27;20215;-77
2024/04/23 06:10:24;;;;;;;12.33;10.40;;;;;;;8.73;51.69;101816.03;5279408;27;20259;-78
2024/04/23 06:12:50;;;;;;;9.23;7.90;;;;;;;8.65;52.47;101805.34;5280324;27;20235;-78
2024/04/23 06:15:16;;;;;;;8.47;7.67;;;;;;;9.16;50.76;101800.97;5279341;27;20219;-77
2024/04/23 06:17:41;;;;;;;11.47;9.17;;;;;;;9.78;49.75;101788.13;5279777;27;21023;-78
2024/04/23 06:20:08;;;;;;;15.13;8.20;;;;;;;9.65;48.77;101789.50;5279760;27;20227;-78
2024/04/23 06:22:40;;;;;;;9.90;8.13;;;;;;;9.74;48.91;101792.38;5280627;27;20358;-79
2024/04/23 06:25:07;;;;;;;9.90;7.90;;;;;;;9.29;49.59;101790.13;5281207;27;20556;-78
2024/04/23 06:27:33;;;;;;;9.83;7.60;;;;;;;8.99;50.22;101793.50;5279733;27;20423;-76
2024/04/23 06:30:09;;;;;;;9.67;8.67;;;;;;;8.95;51.08;101788.16;5280064;27;20550;-78
2024/04/23 06:32:36;;;;;;;9.40;7.70;;;;;;;9.06;50.46;101777.25;5280773;27;20809;-77
2024/04/23 06:35:01;;;;;;;9.60;8.07;;;;;;;9.20;51.45;101779.41;5281417;27;21093;-78
2024/04/23 06:37:27;;;;;;;9.00;7.57;;;;;;;9.12;51.30;101776.59;5282509;27;20458;-77
2024/04/23 06:39:52;;;;;;;9.50;7.63;;;;;;;9.54;50.47;101770.06;5251827;27;20227;-78
2024/04/23 06:42:17;;;;;;;11.83;7.93;;;;;;;9.76;49.47;101776.81;5282358;27;20239;-77
2024/04/23 06:44:43;;;;;;;11.80;7.60;;;;;;;9.35;50.48;101773.81;5249509;27;20231;-75
2024/04/23 06:47:08;;;;;;;10.53;7.90;;;;;;;9.43;51.04;101768.03;5279581;27;20262;-76
2024/04/23 06:49:34;;;;;;;8.90;7.77;;;;;;;9.29;51.83;101768.44;5279733;27;20232;-82
2024/04/23 06:51:59;;;;;;;13.23;8.10;;;;;;;9.47;50.36;101763.81;5278894;27;20652;-77
2024/04/23 06:54:25;;;;;;;10.20;7.30;;;;;;;9.30;50.65;101771.06;5278641;27;20435;-76
2024/04/23 06:56:50;;;;;;;12.13;6.90;;;;;;;9.75;48.91;101770.69;5278470;27;20219;-76
2024/04/23 06:59:15;;;;;;;11.33;7.70;;;;;;;8.70;51.05;101775.22;5280283;27;20265;-78
2024/04/23 07:01:41;;;;;;;11.50;7.60;;;;;;;9.28;50.74;101772.72;5279245;27;20235;-76
2024/04/23 07:04:07;;;;;;;14.83;7.40;;;;;;;9.16;50.46;101772.34;5278742;27;20235;-78
2024/04/23 07:06:32;;;;;;;10.20;7.40;;;;;;;9.31;49.38;101762.44;5278686;27;20574;-75
2024/04/23 07:08:57;;;;;;;9.47;6.43;;;;;;;9.60;49.05;101757.22;5248061;27;20309;-78
2024/04/23 07:11:24;;;;;;;10.73;6.10;;;;;;;8.47;50.90;101757.94;5278634;27;20231;-78
2024/04/23 07:13:49;;;;;;;9.87;7.03;;;;;;;9.05;51.38;101757.28;5249866;27;20326;-75
2024/04/23 07:16:15;;;;;;;11.07;6.97;;;;;;;9.83;50.33;101750.09;5279324;27;20498;-77
2024/04/23 07:18:42;;;;;;;13.93;9.93;;;;;;;9.56;51.25;101752.78;5280088;27;20341;-77
2024/04/23 07:21:08;;;;;;;7.43;6.60;;;;;;;9.93;50.96;101756.44;5278334;27;20443;-76
2024/04/23 07:23:33;;;;;;;8.30;6.63;;;;;;;9.19;52.56;101752.53;5278090;27;20510;-76
2024/04/23 07:25:59;;;;;;;7.83;7.00;;;;;;;9.37;52.97;101754.81;5278536;27;20227;-76
2024/04/23 07:28:24;;;;;;;12.90;6.27;;;;;;;9.25;53.67;101750.13;5278632;27;20269;-76
2024/04/23 07:30:50;;;;;;;7.87;5.77;;;;;;;9.28;53.23;101749.31;5278368;27;20231;-77
2024/04/23 07:33:21;;;;;;;7.77;6.27;;;;;;;8.99;54.18;101751.88;5278136;27;20235;-75
2024/04/23 07:35:47;;;;;;;7.03;5.77;;;;;;;9.16;54.61;101756.75;5277970;27;20239;-77
2024/04/23 07:38:13;;;;;;;8.37;6.87;;;;;;;9.00;55.58;101745.84;5277187;27;20489;-77
2024/04/23 07:40:41;;;;;;;7.60;6.80;;;;;;;8.93;55.92;101741.28;5278051;27;20231;-77
2024/04/23 07:43:06;;;;;;;8.27;7.10;;;;;;;8.77;56.05;101738.19;5277655;27;20239;-75
2024/04/23 07:45:32;;;;;;;7.23;6.33;;;;;;;9.17;55.34;101737.69;5248195;27;20501;-75
2024/04/23 07:47:58;;;;;;;6.80;6.10;;;;;;;9.15;55.70;101739.38;5277463;27;20258;-76
2024/04/23 07:50:23;;;;;;;8.07;6.30;;;;;;;9.70;54.06;101730.66;5277972;27;20458;-75
2024/04/23 07:52:49;;;;;;;63.07;13.90;;;;;;;9.42;55.12;101727.22;5278423;27;20239;-78
2024/04/23 07:55:14;;;;;;;8.10;5.83;;;;;;;9.13;54.44;101725.44;5277654;27;20223;-78
2024/04/23 07:57:43;;;;;;;6.60;5.90;;;;;;;9.91;53.52;101725.16;5278089;27;20219;-77
2024/04/23 08:00:09;;;;;;;26.47;12.40;;;;;;;9.71;53.80;101727.19;5279064;27;20231;-76
2024/04/23 08:02:35;;;;;;;6.93;5.90;;;;;;;10.02;53.24;101715.03;5253731;27;20808;-76
2024/04/23 08:05:01;;;;;;;6.93;6.10;;;;;;;9.55;53.37;101714.56;5243911;27;20519;-75
2024/04/23 08:07:26;;;;;;;8.30;6.33;;;;;;;9.86;53.56;101705.91;5243879;27;20225;-77
2024/04/23 08:09:52;;;;;;;6.13;5.47;;;;;;;8.91;54.26;101710.00;5243938;27;20228;-75
2024/04/23 08:12:17;;;;;;;7.57;5.30;;;;;;;9.39;54.90;101710.59;5244748;27;20349;-75
2024/04/23 08:14:42;;;;;;;5.50;4.90;;;;;;;9.70;53.61;101704.59;5245144;27;20228;-76
2024/04/23 08:17:08;;;;;;;6.53;5.40;;;;;;;10.00;53.08;101698.50;5215853;27;20717;-76
2024/04/23 08:19:34;;;;;;;8.70;5.80;;;;;;;10.33;51.62;101702.81;5245842;27;20307;-77
2024/04/23 08:21:59;;;;;;;6.20;5.47;;;;;;;10.20;51.78;101708.56;5224620;27;20959;-78
2024/04/23 08:24:24;;;;;;;5.90;5.30;;;;;;;9.97;51.38;101698.38;5249909;27;20234;-77
2024/04/23 08:26:49;;;;;;;6.10;5.50;;;;;;;10.33;50.83;101697.63;5245307;27;20248;-78
2024/04/23 08:29:15;;;;;;;5.80;5.20;;;;;;;9.66;51.18;101696.66;5245298;27;20282;-77
2024/04/23 08:31:40;;;;;;;8.53;5.67;;;;;;;9.28;51.21;101689.47;5243538;27;20240;-74
2024/04/23 08:34:05;;;;;;;9.60;5.40;;;;;;;10.09;50.38;101688.31;5243340;27;20228;-77
2024/04/23 08:36:31;;;;;;;6.37;4.83;;;;;;;9.93;50.02;101687.03;5243147;27;20228;-76
2024/04/23 08:38:57;;;;;;;8.90;5.80;;;;;;;10.61;49.11;101686.19;5213764;27;20828;-77
2024/04/23 08:41:26;;;;;;;9.10;5.67;;;;;;;10.70;48.48;101682.06;5242804;27;21003;-75
2024/04/23 08:44:04;;;;;;;8.07;5.53;;;;;;;10.29;48.79;101682.75;5243148;27;20220;-76
2024/04/23 08:46:30;;;;;;;6.37;5.40;;;;;;;11.05;47.46;101669.81;5244360;27;21026;-76
2024/04/23 08:48:56;;;;;;;6.63;5.30;;;;;;;10.89;46.85;101678.16;5243217;27;20416;-76
2024/04/23 08:51:22;;;;;;;7.40;5.20;;;;;;;10.67;47.09;101677.63;5244428;27;20250;-77
2024/04/23 08:53:51;;;;;;;8.77;5.90;;;;;;;10.51;46.66;101676.38;5244347;27;20523;-76
2024/04/23 08:56:25;;;;;;;6.03;5.30;;;;;;;10.43;46.64;101671.00;5243769;27;20220;-75
2024/04/23 08:58:51;;;;;;;9.03;7.03;;;;;;;11.20;46.46;101657.97;5243325;27;20432;-78
2024/04/23 09:01:27;;;;;;;10.50;6.20;;;;;;;11.44;46.50;101660.22;5249694;27;20964;-78
2024/04/23 09:03:55;;;;;;;7.40;5.70;;;;;;;12.10;45.84;101653.69;5277234;27;20470;-77
2024/04/23 09:06:21;;;;;;;5.83;5.13;;;;;;;12.22;44.41;101649.56;5277020;27;20491;-76
2024/04/23 09:08:47;;;;;;;7.20;5.70;;;;;;;12.09;45.01;101635.38;5276192;27;20435;-77
2024/04/23 09:11:13;;;;;;;7.73;5.60;;;;;;;11.34;43.55;101648.72;5276732;27;20495;-76
2024/04/23 09:13:39;;;;;;;7.43;5.80;;;;;;;11.87;43.33;101636.69;5246812;27;20262;-76
2024/04/23 09:16:06;;;;;;;6.93;5.83;;;;;;;12.20;42.40;101632.97;5276026;27;20447;-76
2024/04/23 09:18:31;;;;;;;7.50;5.90;;;;;;;12.08;43.33;101631.91;5275655;27;20278;-76
2024/04/23 09:21:01;;;;;;;8.10;5.13;;;;;;;11.26;43.63;101632.03;5276219;27;20475;-75
2024/04/23 09:23:27;;;;;;;6.60;5.20;;;;;;;12.34;41.97;101625.34;5276560;27;20219;-76
2024/04/23 09:25:54;;;;;;;149.07;24.47;;;;;;;12.76;41.22;101625.16;5276593;27;21042;-77
2024/04/23 09:28:21;;;;;;;18.73;7.30;;;;;;;12.82;39.09;101620.88;5246392;27;20257;-77
2024/04/23 09:30:46;;;;;;;5.97;5.37;;;;;;;12.42;39.89;101621.13;5278250;27;20494;-77
2024/04/23 09:33:12;;;;;;;7.93;5.80;;;;;;;12.42;39.17;101624.63;5277112;27;20472;-77
2024/04/23 09:35:38;;;;;;;28.70;7.40;;;;;;;13.44;39.38;101609.50;5276529;27;20485;-77
2024/04/23 09:38:06;;;;;;;6.70;5.20;;;;;;;12.94;39.02;101608.81;5276343;27;20325;-76
2024/04/23 09:40:39;;;;;;;6.60;4.90;;;;;;;11.39;40.98;101613.16;5276773;27;20235;-77
2024/04/23 09:43:05;;;;;;;6.07;5.27;;;;;;;11.48;40.78;101607.22;5276865;27;20886;-76
2024/04/23 09:45:31;;;;;;;95.43;14.00;;;;;;;11.94;40.10;101609.81;5276565;27;20422;-77
2024/04/23 09:47:56;;;;;;;7.20;5.10;;;;;;;12.57;40.13;101602.16;5276326;27;20439;-77
2024/04/23 09:50:28;;;;;;;6.43;4.90;;;;;;;12.37;39.46;101605.38;5276158;27;20265;-76
2024/04/23 09:53:03;;;;;;;6.20;5.43;;;;;;;12.05;38.61;101599.59;5284205;27;20247;-78
2024/04/23 09:55:29;;;;;;;8.80;5.53;;;;;;;12.90;37.43;101593.94;5278363;27;20430;-78
2024/04/23 09:57:54;;;;;;;16.27;6.80;;;;;;;12.58;34.95;101590.84;5276196;27;20570;-77
2024/04/23 10:00:20;;;;;;;10.60;5.53;;;;;;;13.36;35.73;101577.97;5277630;27;20227;-77
2024/04/23 10:02:52;;;;;;;7.73;5.03;;;;;;;13.58;34.80;101568.59;5252198;27;20245;-77
2024/04/23 10:05:27;;;;;;;6.03;5.30;;;;;;;14.44;35.87;101563.22;5245811;27;20271;-77
2024/04/23 10:08:01;;;;;;;7.13;5.90;;;;;;;14.23;33.66;101556.06;5216111;27;20502;-76
2024/04/23 10:10:36;;;;;;;8.73;5.47;;;;;;;13.82;34.89;101560.09;5246560;27;20586;-77
2024/04/23 10:13:03;;;;;;;8.10;5.50;;;;;;;14.01;36.27;101557.66;5248468;27;20511;-76
2024/04/23 10:15:48;;;;;;;6.60;5.90;;;;;;;13.89;35.37;101557.53;5246038;27;20427;-77
2024/04/23 10:18:24;;;;;;;6.00;5.07;;;;;;;13.89;36.04;101558.41;5245464;27;20459;-76
2024/04/23 10:20:52;;;;;;;10.07;6.00;;;;;;;13.64;37.40;101545.09;5245929;27;20507;-77
2024/04/23 10:23:19;;;;;;;10.67;5.97;;;;;;;14.45;37.50;101533.50;5245732;27;20460;-76
2024/04/23 10:25:46;;;;;;;8.17;6.33;;;;;;;14.19;36.56;101533.31;5245613;27;20424;-77
2024/04/23 10:28:12;;;;;;;7.20;5.80;;;;;;;15.33;35.06;101527.81;5246802;27;20456;-78
2024/04/23 10:30:38;;;;;;;6.53;5.93;;;;;;;14.52;38.56;101529.19;5246542;27;20408;-78
2024/04/23 10:33:06;;;;;;;8.43;5.90;;;;;;;14.54;36.16;101516.06;5247593;27;20528;-78
2024/04/23 10:35:33;;;;;;;8.50;6.07;;;;;;;14.58;36.65;101515.22;5248307;27;20228;-77
2024/04/23 10:38:00;;;;;;;7.80;6.07;;;;;;;14.91;35.64;101504.03;5246240;27;20424;-77
2024/04/23 10:40:27;;;;;;;7.20;5.70;;;;;;;14.95;36.74;101504.91;5245692;27;20517;-77
2024/04/23 10:42:52;;;;;;;6.50;5.80;;;;;;;15.72;35.69;101497.22;5245526;27;20511;-77
2024/04/23 10:45:17;;;;;;;6.60;5.80;;;;;;;14.24;35.87;101497.50;5246860;27;20812;-77
2024/04/23 10:47:48;;;;;;;6.90;5.70;;;;;;;15.66;35.00;101491.94;5259956;27;20228;-74
2024/04/23 10:50:26;;;;;;;6.90;5.70;;;;;;;15.63;33.93;101486.69;5260495;27;20286;-76
2024/04/23 10:52:59;;;;;;;8.53;5.80;;;;;;;16.29;33.37;101480.50;5278134;27;20522;-77
2024/04/23 10:55:25;;;;;;;8.37;5.70;;;;;;;17.65;31.48;101467.56;5278795;27;20419;-77
2024/04/23 10:57:53;;;;;;;7.30;6.40;;;;;;;16.64;31.87;101463.75;5278699;27;20446;-78
2024/04/23 11:00:25;;;;;;;8.73;6.40;;;;;;;16.40;31.54;101476.13;5278347;27;20231;-75
2024/04/23 11:02:52;;;;;;;7.57;6.87;;;;;;;15.92;33.25;101472.69;5278794;27;20786;-76
2024/04/23 11:05:17;;;;;;;6.30;5.70;;;;;;;16.81;32.14;101466.31;5278293;27;20451;-74
2024/04/23 11:07:49;;;;;;;10.53;8.20;;;;;;;16.13;33.25;101461.28;5278229;27;20544;-75
2024/04/23 11:10:18;;;;;;;11.70;9.00;;;;;;;17.36;31.88;101449.34;5278701;27;20219;-73
2024/04/23 11:12:45;;;;;;;7.90;7.20;;;;;;;16.83;33.90;101460.16;5277894;27;20843;-76
2024/04/23 11:15:17;;;;;;;7.40;6.70;;;;;;;15.99;34.12;101453.38;5278513;27;20458;-74
2024/04/23 11:17:42;;;;;;;7.10;6.50;;;;;;;15.90;33.46;101448.13;5278736;27;20458;-76
2024/04/23 11:20:08;;;;;;;7.13;6.53;;;;;;;15.72;33.98;101434.13;5246987;27;20496;-76
2024/04/23 11:22:50;;;;;;;7.23;6.63;;;;;;;15.37;34.97;101442.88;5244979;27;20240;-75
2024/04/23 11:25:27;;;;;;;8.60;6.50;;;;;;;15.97;33.70;101431.50;5244556;27;20235;-77
2024/04/23 11:27:53;;;;;;;42.47;29.07;;;;;;;15.19;31.72;101430.56;5244268;27;20575;-74
2024/04/23 11:30:18;;;;;;;8.10;7.30;;;;;;;14.90;33.05;101430.53;5215386;27;20575;-78
2024/04/23 11:32:44;;;;;;;6.33;5.73;;;;;;;15.65;32.86;101424.47;5215846;27;20968;-77